sensor_id;sensor_type;location;lat;lon;timestamp;pressure;altitude;pressure_sealevel;temperature;humidity
58658;BME280;44428;45.630;13.786;2023-02-16T00:03:44;102751.91;;;4.05;99.97
58658;BME280;44428;45.630;13.786;2023-02-16T00:06:10;102751.91;;;4.05;100.00
58658;BME280;44428;45.630;13.786;2023-02-16T00:08:45;102752.81;;;4.02;100.00
58658;BME280;44428;45.630;13.786;2023-02-16T00:14:10;102747.53;;;4.05;100.00
58658;BME280;44428;45.630;13.786;2023-02-16T00:16:36;102762.34;;;4.09;100.00
58658;BME280;44428;45.630;13.786;2023-02-16T00:19:18;102754.47;;;4.12;99.29
58658;BME280;44428;45.630;13.786;2023-02-16T00:21:46;102750.91;;;4.17;97.83
58658;BME280;44428;45.630;13.786;2023-02-16T00:24:12;102750.88;;;4.20;97.46
58658;BME280;44428;45.630;13.786;2023-02-16T00:26:40;102752.66;;;4.18;96.70
58658;BME280;44428;45.630;13.786;2023-02-16T00:29:09;102750.09;;;4.15;95.50
58658;BME280;44428;45.630;13.786;2023-02-16T00:31:35;102747.47;;;4.15;94.73
58658;BME280;44428;45.630;13.786;2023-02-16T00:36:51;102751.84;;;4.12;93.86
58658;BME280;44428;45.630;13.786;2023-02-16T00:39:19;102749.16;;;4.19;93.64
58658;BME280;44428;45.630;13.786;2023-02-16T00:41:46;102757.94;;;4.15;93.61
58658;BME280;44428;45.630;13.786;2023-02-16T00:44:17;102749.22;;;4.12;94.22
58658;BME280;44428;45.630;13.786;2023-02-16T00:46:45;102764.03;;;4.13;94.33
58658;BME280;44428;45.630;13.786;2023-02-16T00:49:15;102765.00;;;4.06;94.83
58658;BME280;44428;45.630;13.786;2023-02-16T00:51:42;102764.16;;;4.01;95.59
58658;BME280;44428;45.630;13.786;2023-02-16T00:54:09;102751.00;;;4.07;95.05
58658;BME280;44428;45.630;13.786;2023-02-16T00:56:36;102757.97;;;4.11;94.76
58658;BME280;44428;45.630;13.786;2023-02-16T00:59:05;102759.72;;;4.09;94.79
58658;BME280;44428;45.630;13.786;2023-02-16T01:01:36;102747.53;;;4.05;95.16
58658;BME280;44428;45.630;13.786;2023-02-16T01:04:05;102749.34;;;3.99;95.57
58658;BME280;44428;45.630;13.786;2023-02-16T01:06:32;102752.88;;;3.96;95.95
58658;BME280;44428;45.630;13.786;2023-02-16T01:09:19;102759.06;;;3.89;96.12
58658;BME280;44428;45.630;13.786;2023-02-16T01:12:12;102756.50;;;3.83;96.08
58658;BME280;44428;45.630;13.786;2023-02-16T01:14:39;102753.06;;;3.75;96.38
58658;BME280;44428;45.630;13.786;2023-02-16T01:17:05;102753.09;;;3.72;96.88
58658;BME280;44428;45.630;13.786;2023-02-16T01:19:32;102747.06;;;3.65;97.02
58658;BME280;44428;45.630;13.786;2023-02-16T01:21:58;102747.94;;;3.62;97.06
58658;BME280;44428;45.630;13.786;2023-02-16T01:24:27;102748.81;;;3.64;96.90
58658;BME280;44428;45.630;13.786;2023-02-16T01:26:53;102748.84;;;3.60;97.29
58658;BME280;44428;45.630;13.786;2023-02-16T01:29:20;102751.47;;;3.61;97.26
58658;BME280;44428;45.630;13.786;2023-02-16T01:31:48;102748.84;;;3.60;98.24
58658;BME280;44428;45.630;13.786;2023-02-16T01:34:14;102755.00;;;3.54;97.94
58658;BME280;44428;45.630;13.786;2023-02-16T01:36:45;102763.75;;;3.50;97.96
58658;BME280;44428;45.630;13.786;2023-02-16T01:39:19;102758.53;;;3.47;98.22
58658;BME280;44428;45.630;13.786;2023-02-16T01:41:56;102753.31;;;3.47;98.38
58658;BME280;44428;45.630;13.786;2023-02-16T01:44:32;102756.81;;;3.46;98.40
58658;BME280;44428;45.630;13.786;2023-02-16T01:47:41;102753.34;;;3.44;98.27
58658;BME280;44428;45.630;13.786;2023-02-16T01:50:27;102754.16;;;3.48;97.60
58658;BME280;44428;45.630;13.786;2023-02-16T01:53:30;102753.31;;;3.47;97.62
58658;BME280;44428;45.630;13.786;2023-02-16T01:56:01;102746.28;;;3.55;96.63
58658;BME280;44428;45.630;13.786;2023-02-16T01:58:55;102753.22;;;3.59;95.95
58658;BME280;44428;45.630;13.786;2023-02-16T02:01:35;102747.94;;;3.62;95.19
58658;BME280;44428;45.630;13.786;2023-02-16T02:04:13;102737.44;;;3.68;93.68
58658;BME280;44428;45.630;13.786;2023-02-16T02:07:02;102727.06;;;3.59;93.66
58658;BME280;44428;45.630;13.786;2023-02-16T02:09:36;102722.72;;;3.57;93.60
58658;BME280;44428;45.630;13.786;2023-02-16T02:12:15;102735.81;;;3.58;92.78
58658;BME280;44428;45.630;13.786;2023-02-16T02:14:45;102728.84;;;3.57;92.46
58658;BME280;44428;45.630;13.786;2023-02-16T02:17:16;102725.31;;;3.61;91.50
58658;BME280;44428;45.630;13.786;2023-02-16T02:28:44;102693.88;;;3.67;86.40
58658;BME280;44428;45.630;13.786;2023-02-16T02:36:27;102697.31;;;3.76;86.38
58658;BME280;44428;45.630;13.786;2023-02-16T02:45:54;102692.13;;;3.70;86.46
58658;BME280;44428;45.630;13.786;2023-02-16T02:48:14;102686.97;;;3.63;86.67
58658;BME280;44428;45.630;13.786;2023-02-16T02:50:48;102685.22;;;3.62;86.30
58658;BME280;44428;45.630;13.786;2023-02-16T02:53:40;102695.66;;;3.62;86.39
58658;BME280;44428;45.630;13.786;2023-02-16T02:56:11;102681.81;;;3.57;86.76
58658;BME280;44428;45.630;13.786;2023-02-16T02:59:05;102688.81;;;3.52;86.91
58658;BME280;44428;45.630;13.786;2023-02-16T03:01:56;102698.47;;;3.46;87.49
58658;BME280;44428;45.630;13.786;2023-02-16T03:04:27;102691.53;;;3.38;87.65
58658;BME280;44428;45.630;13.786;2023-02-16T03:06:57;102693.28;;;3.38;87.93
58658;BME280;44428;45.630;13.786;2023-02-16T03:09:25;102685.47;;;3.35;87.78
58658;BME280;44428;45.630;13.786;2023-02-16T03:11:52;102697.59;;;3.45;87.79
58658;BME280;44428;45.630;13.786;2023-02-16T03:14:45;102694.09;;;3.46;87.54
58658;BME280;44428;45.630;13.786;2023-02-16T03:17:15;102692.41;;;3.42;87.27
58658;BME280;44428;45.630;13.786;2023-02-16T03:20:04;102682.81;;;3.38;88.27
58658;BME280;44428;45.630;13.786;2023-02-16T03:22:49;102693.31;;;3.36;87.54
58658;BME280;44428;45.630;13.786;2023-02-16T03:25:36;102688.97;;;3.34;87.48
58658;BME280;44428;45.630;13.786;2023-02-16T03:28:24;102695.09;;;3.31;87.33
58658;BME280;44428;45.630;13.786;2023-02-16T03:31:14;102695.97;;;3.29;87.47
58658;BME280;44428;45.630;13.786;2023-02-16T03:33:41;102683.81;;;3.25;88.23
58658;BME280;44428;45.630;13.786;2023-02-16T03:36:08;102689.06;;;3.25;87.70
58658;BME280;44428;45.630;13.786;2023-02-16T03:38:34;102697.78;;;3.20;88.60
58658;BME280;44428;45.630;13.786;2023-02-16T03:41:02;102697.88;;;3.08;88.59
58658;BME280;44428;45.630;13.786;2023-02-16T03:43:29;102701.38;;;3.04;88.97
58658;BME280;44428;45.630;13.786;2023-02-16T03:45:55;102701.41;;;3.01;89.68
58658;BME280;44428;45.630;13.786;2023-02-16T03:48:21;102710.09;;;3.03;89.81
58658;BME280;44428;45.630;13.786;2023-02-16T03:50:47;102704.88;;;3.03;89.91
58658;BME280;44428;45.630;13.786;2023-02-16T03:53:13;102703.16;;;2.99;90.47
58658;BME280;44428;45.630;13.786;2023-02-16T03:55:45;102711.81;;;3.07;89.34
58658;BME280;44428;45.630;13.786;2023-02-16T03:58:20;102706.56;;;3.10;88.88
58658;BME280;44428;45.630;13.786;2023-02-16T04:00:47;102708.28;;;3.11;88.66
58658;BME280;44428;45.630;13.786;2023-02-16T04:03:13;102717.00;;;3.13;88.04
58658;BME280;44428;45.630;13.786;2023-02-16T04:05:40;102706.50;;;3.19;87.49
58658;BME280;44428;45.630;13.786;2023-02-16T04:08:07;102699.56;;;3.15;86.96
58658;BME280;44428;45.630;13.786;2023-02-16T04:10:34;102708.16;;;3.27;85.74
58658;BME280;44428;45.630;13.786;2023-02-16T04:13:01;102697.72;;;3.27;85.64
58658;BME280;44428;45.630;13.786;2023-02-16T04:15:28;102702.09;;;3.23;85.07
58658;BME280;44428;45.630;13.786;2023-02-16T04:17:55;102702.94;;;3.27;84.57
58658;BME280;44428;45.630;13.786;2023-02-16T04:20:25;102701.28;;;3.19;84.98
58658;BME280;44428;45.630;13.786;2023-02-16T04:22:51;102707.41;;;3.15;85.26
58658;BME280;44428;45.630;13.786;2023-02-16T04:25:18;102703.06;;;3.11;85.41
58658;BME280;44428;45.630;13.786;2023-02-16T04:27:45;102704.78;;;3.18;85.07
58658;BME280;44428;45.630;13.786;2023-02-16T04:30:15;102704.72;;;3.25;84.64
58658;BME280;44428;45.630;13.786;2023-02-16T04:32:41;102708.22;;;3.20;84.76
58658;BME280;44428;45.630;13.786;2023-02-16T04:35:08;102708.19;;;3.24;84.74
58658;BME280;44428;45.630;13.786;2023-02-16T04:37:34;102711.75;;;3.13;85.64
58658;BME280;44428;45.630;13.786;2023-02-16T04:40:01;102708.34;;;3.02;86.35
58658;BME280;44428;45.630;13.786;2023-02-16T04:42:27;102702.34;;;2.91;87.34
58658;BME280;44428;45.630;13.786;2023-02-16T04:44:53;102705.00;;;2.85;87.46
58658;BME280;44428;45.630;13.786;2023-02-16T04:47:19;102707.59;;;2.83;87.97
58658;BME280;44428;45.630;13.786;2023-02-16T04:49:46;102702.41;;;2.85;87.28
58658;BME280;44428;45.630;13.786;2023-02-16T04:52:12;102698.00;;;2.87;86.74
58658;BME280;44428;45.630;13.786;2023-02-16T04:54:39;102703.22;;;2.90;86.00
58658;BME280;44428;45.630;13.786;2023-02-16T04:57:05;102701.47;;;2.92;85.61
58658;BME280;44428;45.630;13.786;2023-02-16T04:59:31;102706.69;;;2.92;85.64
58658;BME280;44428;45.630;13.786;2023-02-16T05:01:57;102706.66;;;2.95;85.09
58658;BME280;44428;45.630;13.786;2023-02-16T05:04:23;102697.94;;;2.96;84.85
58658;BME280;44428;45.630;13.786;2023-02-16T05:06:49;102708.38;;;2.99;84.45
58658;BME280;44428;45.630;13.786;2023-02-16T05:09:15;102705.69;;;3.08;83.23
58658;BME280;44428;45.630;13.786;2023-02-16T05:11:41;102715.25;;;3.12;82.92
58658;BME280;44428;45.630;13.786;2023-02-16T05:14:29;102712.63;;;3.15;83.25
58658;BME280;44428;45.630;13.786;2023-02-16T05:17:20;102708.25;;;3.14;83.42
58658;BME280;44428;45.630;13.786;2023-02-16T05:19:49;102706.50;;;3.16;83.38
58658;BME280;44428;45.630;13.786;2023-02-16T05:22:16;102708.28;;;3.11;83.48
58658;BME280;44428;45.630;13.786;2023-02-16T05:24:42;102712.69;;;3.05;84.06
58658;BME280;44428;45.630;13.786;2023-02-16T05:27:12;102704.88;;;3.03;84.41
58658;BME280;44428;45.630;13.786;2023-02-16T05:29:38;102707.50;;;3.00;84.91
58658;BME280;44428;45.630;13.786;2023-02-16T05:32:04;102708.34;;;3.02;84.58
58658;BME280;44428;45.630;13.786;2023-02-16T05:34:31;102710.09;;;3.03;84.86
58658;BME280;44428;45.630;13.786;2023-02-16T05:36:57;102712.69;;;3.05;85.10
58658;BME280;44428;45.630;13.786;2023-02-16T05:39:23;102716.19;;;2.99;85.04
58658;BME280;44428;45.630;13.786;2023-02-16T05:41:49;102718.84;;;2.93;85.78
58658;BME280;44428;45.630;13.786;2023-02-16T05:44:15;102711.94;;;2.86;86.46
58658;BME280;44428;45.630;13.786;2023-02-16T05:46:42;102720.69;;;2.82;86.54
58658;BME280;44428;45.630;13.786;2023-02-16T05:49:09;102718.88;;;2.90;86.74
58658;BME280;44428;45.630;13.786;2023-02-16T05:51:35;102719.75;;;2.89;86.47
58658;BME280;44428;45.630;13.786;2023-02-16T05:54:02;102720.63;;;2.91;86.51
58658;BME280;44428;45.630;13.786;2023-02-16T05:56:29;102727.53;;;2.98;85.35
58658;BME280;44428;45.630;13.786;2023-02-16T05:58:55;102731.00;;;3.03;85.98
58658;BME280;44428;45.630;13.786;2023-02-16T06:01:22;102731.03;;;3.00;85.66
58658;BME280;44428;45.630;13.786;2023-02-16T06:03:48;102732.69;;;3.07;85.71
58658;BME280;44428;45.630;13.786;2023-02-16T06:06:14;102739.63;;;3.11;85.78
58658;BME280;44428;45.630;13.786;2023-02-16T06:08:40;102748.34;;;3.13;85.40
58658;BME280;44428;45.630;13.786;2023-02-16T06:11:06;102753.53;;;3.16;85.49
58658;BME280;44428;45.630;13.786;2023-02-16T06:13:53;102750.06;;;3.14;85.38
58658;BME280;44428;45.630;13.786;2023-02-16T06:16:24;102753.50;;;3.19;85.89
58658;BME280;44428;45.630;13.786;2023-02-16T06:18:50;102755.16;;;3.30;85.34
58658;BME280;44428;45.630;13.786;2023-02-16T06:21:16;102763.81;;;3.41;85.11
58658;BME280;44428;45.630;13.786;2023-02-16T06:23:42;102764.66;;;3.41;84.77
58658;BME280;44428;45.630;13.786;2023-02-16T06:26:08;102769.00;;;3.44;84.73
58658;BME280;44428;45.630;13.786;2023-02-16T06:28:34;102776.00;;;3.45;84.81
58658;BME280;44428;45.630;13.786;2023-02-16T06:31:00;102782.94;;;3.49;84.86
58658;BME280;44428;45.630;13.786;2023-02-16T06:33:25;102776.78;;;3.53;85.16
58658;BME280;44428;45.630;13.786;2023-02-16T06:35:51;102771.56;;;3.55;84.42
58658;BME280;44428;45.630;13.786;2023-02-16T06:38:17;102775.00;;;3.61;84.50
58658;BME280;44428;45.630;13.786;2023-02-16T06:40:43;102779.28;;;3.68;84.26
58658;BME280;44428;45.630;13.786;2023-02-16T06:43:09;102774.88;;;3.74;84.14
58658;BME280;44428;45.630;13.786;2023-02-16T06:45:35;102782.66;;;3.80;83.99
58658;BME280;44428;45.630;13.786;2023-02-16T06:48:00;102788.72;;;3.83;83.87
58658;BME280;44428;45.630;13.786;2023-02-16T06:50:26;102787.78;;;3.92;83.48
58658;BME280;44428;45.630;13.786;2023-02-16T06:52:52;102792.97;;;3.98;83.48
58658;BME280;44428;45.630;13.786;2023-02-16T06:55:18;102787.66;;;4.04;83.18
58658;BME280;44428;45.630;13.786;2023-02-16T06:57:44;102792.88;;;4.07;82.99
58658;BME280;44428;45.630;13.786;2023-02-16T07:00:10;102789.38;;;4.11;82.44
58658;BME280;44428;45.630;13.786;2023-02-16T07:02:36;102787.50;;;4.20;82.08
58658;BME280;44428;45.630;13.786;2023-02-16T07:05:03;102799.69;;;4.27;81.85
58658;BME280;44428;45.630;13.786;2023-02-16T07:07:29;102797.81;;;4.35;81.42
58658;BME280;44428;45.630;13.786;2023-02-16T07:09:56;102795.16;;;4.40;81.71
58658;BME280;44428;45.630;13.786;2023-02-16T07:12:23;102799.50;;;4.42;81.47
58658;BME280;44428;45.630;13.786;2023-02-16T07:14:49;102789.94;;;4.40;81.58
58658;BME280;44428;45.630;13.786;2023-02-16T07:17:14;102794.28;;;4.42;81.69
58658;BME280;44428;45.630;13.786;2023-02-16T07:19:41;102792.38;;;4.53;81.52
58658;BME280;44428;45.630;13.786;2023-02-16T07:22:07;102800.91;;;4.71;80.98
58658;BME280;44428;45.630;13.786;2023-02-16T07:24:33;102798.94;;;4.88;80.52
58658;BME280;44428;45.630;13.786;2023-02-16T07:26:59;102802.31;;;4.99;79.21
58658;BME280;44428;45.630;13.786;2023-02-16T07:29:24;102810.84;;;5.11;78.94
58658;BME280;44428;45.630;13.786;2023-02-16T07:31:50;102808.91;;;5.25;79.17
58658;BME280;44428;45.630;13.786;2023-02-16T07:34:16;102800.03;;;5.35;78.33
58658;BME280;44428;45.630;13.786;2023-02-16T07:36:42;102796.38;;;5.45;78.21
58658;BME280;44428;45.630;13.786;2023-02-16T07:39:10;102803.09;;;5.62;77.74
58658;BME280;44428;45.630;13.786;2023-02-16T07:41:36;102815.16;;;5.75;77.33
58658;BME280;44428;45.630;13.786;2023-02-16T07:44:06;102809.66;;;5.90;77.02
58658;BME280;44428;45.630;13.786;2023-02-16T07:46:32;102816.44;;;6.04;76.34
58658;BME280;44428;45.630;13.786;2023-02-16T07:48:58;102804.84;;;6.15;75.92
58658;BME280;44428;45.630;13.786;2023-02-16T07:51:26;102803.78;;;6.27;75.43
58658;BME280;44428;45.630;13.786;2023-02-16T07:53:53;102808.97;;;6.30;74.95
58658;BME280;44428;45.630;13.786;2023-02-16T07:56:21;102807.69;;;6.51;71.39
58658;BME280;44428;45.630;13.786;2023-02-16T07:58:47;102817.78;;;6.71;69.27
58658;BME280;44428;45.630;13.786;2023-02-16T08:01:13;102813.03;;;6.88;68.77
58658;BME280;44428;45.630;13.786;2023-02-16T08:03:39;102816.19;;;7.06;69.35
58658;BME280;44428;45.630;13.786;2023-02-16T08:06:06;102815.56;;;7.33;69.54
58658;BME280;44428;45.630;13.786;2023-02-16T08:08:33;102821.78;;;8.99;65.67
58658;BME280;44428;45.630;13.786;2023-02-16T08:11:10;102812.38;;;12.07;55.95
58658;BME280;44428;45.630;13.786;2023-02-16T08:13:36;102810.34;;;14.18;48.97
58658;BME280;44428;45.630;13.786;2023-02-16T08:16:07;102816.22;;;15.85;45.06
58658;BME280;44428;45.630;13.786;2023-02-16T08:18:33;102810.47;;;16.80;40.43
58658;BME280;44428;45.630;13.786;2023-02-16T08:21:09;102816.66;;;17.76;38.68
58658;BME280;44428;45.630;13.786;2023-02-16T08:23:40;102823.69;;;17.92;36.50
58658;BME280;44428;45.630;13.786;2023-02-16T08:26:09;102817.09;;;18.36;36.76
58658;BME280;44428;45.630;13.786;2023-02-16T08:28:36;102820.19;;;18.55;35.68
58658;BME280;44428;45.630;13.786;2023-02-16T08:31:04;102822.09;;;18.79;34.72
58658;BME280;44428;45.630;13.786;2023-02-16T08:33:30;102824.88;;;18.90;34.70
58658;BME280;44428;45.630;13.786;2023-02-16T08:35:57;102817.72;;;19.14;34.01
58658;BME280;44428;45.630;13.786;2023-02-16T08:38:24;102819.50;;;19.51;33.59
58658;BME280;44428;45.630;13.786;2023-02-16T08:40:50;102815.03;;;20.22;32.10
58658;BME280;44428;45.630;13.786;2023-02-16T08:43:16;102820.44;;;20.89;30.88
58658;BME280;44428;45.630;13.786;2023-02-16T08:45:48;102817.13;;;21.52;30.40
58658;BME280;44428;45.630;13.786;2023-02-16T08:48:14;102822.22;;;21.87;30.01
58658;BME280;44428;45.630;13.786;2023-02-16T08:50:47;102818.25;;;22.23;28.93
58658;BME280;44428;45.630;13.786;2023-02-16T08:53:22;102817.91;;;22.78;28.92
58658;BME280;44428;45.630;13.786;2023-02-16T08:55:54;102822.81;;;22.94;28.13
58658;BME280;44428;45.630;13.786;2023-02-16T08:58:21;102824.63;;;23.53;27.62
58658;BME280;44428;45.630;13.786;2023-02-16T09:00:47;102817.50;;;24.10;27.06
58658;BME280;44428;45.630;13.786;2023-02-16T09:03:15;102823.59;;;24.12;26.31
58658;BME280;44428;45.630;13.786;2023-02-16T09:05:51;102822.63;;;23.36;27.60
58658;BME280;44428;45.630;13.786;2023-02-16T09:08:17;102819.81;;;23.86;27.19
58658;BME280;44428;45.630;13.786;2023-02-16T09:10:44;102820.97;;;24.77;25.74
58658;BME280;44428;45.630;13.786;2023-02-16T09:13:10;102819.47;;;24.08;26.34
58658;BME280;44428;45.630;13.786;2023-02-16T09:15:40;102819.50;;;23.60;26.85
58658;BME280;44428;45.630;13.786;2023-02-16T09:18:06;102826.06;;;23.57;26.63
58658;BME280;44428;45.630;13.786;2023-02-16T09:20:41;102823.47;;;24.04;25.79
58658;BME280;44428;45.630;13.786;2023-02-16T09:23:09;102825.16;;;24.25;25.52
58658;BME280;44428;45.630;13.786;2023-02-16T09:25:39;102827.19;;;24.87;25.01
58658;BME280;44428;45.630;13.786;2023-02-16T09:28:05;102817.00;;;24.72;24.94
58658;BME280;44428;45.630;13.786;2023-02-16T09:30:36;102820.41;;;25.29;24.38
58658;BME280;44428;45.630;13.786;2023-02-16T09:33:03;102814.25;;;25.80;24.00
58658;BME280;44428;45.630;13.786;2023-02-16T09:35:29;102822.38;;;25.98;23.29
58658;BME280;44428;45.630;13.786;2023-02-16T09:37:56;102811.34;;;25.38;23.63
58658;BME280;44428;45.630;13.786;2023-02-16T09:40:23;102817.13;;;24.52;24.89
58658;BME280;44428;45.630;13.786;2023-02-16T09:45:22;102821.97;;;24.49;24.90
58658;BME280;44428;45.630;13.786;2023-02-16T09:47:50;102826.94;;;24.81;24.71
58658;BME280;44428;45.630;13.786;2023-02-16T09:50:25;102826.59;;;25.39;24.29
58658;BME280;44428;45.630;13.786;2023-02-16T09:53:02;102834.00;;;25.73;24.19
58658;BME280;44428;45.630;13.786;2023-02-16T09:55:42;102826.13;;;25.97;23.77
58658;BME280;44428;45.630;13.786;2023-02-16T09:58:21;102825.16;;;26.33;23.40
58658;BME280;44428;45.630;13.786;2023-02-16T10:00:58;102831.56;;;26.92;23.12
58658;BME280;44428;45.630;13.786;2023-02-16T10:03:59;102835.03;;;26.16;24.38
58658;BME280;44428;45.630;13.786;2023-02-16T10:06:40;102836.38;;;26.12;24.69
58658;BME280;44428;45.630;13.786;2023-02-16T10:09:15;102838.38;;;26.10;25.25
58658;BME280;44428;45.630;13.786;2023-02-16T10:11:46;102834.69;;;25.93;26.03
58658;BME280;44428;45.630;13.786;2023-02-16T10:17:23;102834.81;;;27.04;25.92
58658;BME280;44428;45.630;13.786;2023-02-16T10:22:44;102833.91;;;27.62;25.78
58658;BME280;44428;45.630;13.786;2023-02-16T10:30:38;102821.63;;;28.87;24.31
58658;BME280;44428;45.630;13.786;2023-02-16T10:33:39;102820.25;;;28.91;24.88
58658;BME280;44428;45.630;13.786;2023-02-16T10:36:53;102821.41;;;29.05;23.66
58658;BME280;44428;45.630;13.786;2023-02-16T10:48:02;102824.00;;;28.51;24.24
58658;BME280;44428;45.630;13.786;2023-02-16T10:50:35;102810.47;;;28.26;24.05
58658;BME280;44428;45.630;13.786;2023-02-16T10:53:16;102810.47;;;28.26;24.74
58658;BME280;44428;45.630;13.786;2023-02-16T10:55:44;102806.91;;;28.18;24.49
58658;BME280;44428;45.630;13.786;2023-02-16T10:58:24;102802.53;;;28.08;24.66
58658;BME280;44428;45.630;13.786;2023-02-16T11:01:09;102791.50;;;28.58;23.57
58658;BME280;44428;45.630;13.786;2023-02-16T11:03:44;102792.91;;;28.85;22.88
58658;BME280;44428;45.630;13.786;2023-02-16T11:06:17;102785.59;;;28.38;23.05
58658;BME280;44428;45.630;13.786;2023-02-16T11:08:49;102792.34;;;28.58;22.13
58658;BME280;44428;45.630;13.786;2023-02-16T11:11:16;102788.19;;;28.79;22.59
58658;BME280;44428;45.630;13.786;2023-02-16T11:13:48;102793.97;;;28.20;23.46
58658;BME280;44428;45.630;13.786;2023-02-16T11:16:20;102795.22;;;27.52;23.84
58658;BME280;44428;45.630;13.786;2023-02-16T11:18:59;102786.06;;;27.85;23.17
58658;BME280;44428;45.630;13.786;2023-02-16T11:21:46;102791.16;;;27.72;23.44
58658;BME280;44428;45.630;13.786;2023-02-16T11:24:26;102789.75;;;27.19;24.18
58658;BME280;44428;45.630;13.786;2023-02-16T11:29:38;102781.84;;;26.75;24.70
58658;BME280;44428;45.630;13.786;2023-02-16T11:32:12;102791.38;;;26.87;24.73
58658;BME280;44428;45.630;13.786;2023-02-16T11:34:46;102777.31;;;26.49;25.42
58658;BME280;44428;45.630;13.786;2023-02-16T11:37:27;102772.03;;;26.14;25.46
58658;BME280;44428;45.630;13.786;2023-02-16T11:40:02;102767.25;;;26.08;26.27
58658;BME280;44428;45.630;13.786;2023-02-16T11:42:37;102771.03;;;25.71;26.79
58658;BME280;44428;45.630;13.786;2023-02-16T11:45:30;102772.75;;;25.00;28.36
58658;BME280;44428;45.630;13.786;2023-02-16T11:48:05;102760.41;;;25.16;28.26
58658;BME280;44428;45.630;13.786;2023-02-16T11:50:34;102764.22;;;24.95;28.33
58658;BME280;44428;45.630;13.786;2023-02-16T11:53:15;102753.59;;;25.11;28.72
58658;BME280;44428;45.630;13.786;2023-02-16T11:55:47;102750.75;;;24.67;29.66
58658;BME280;44428;45.630;13.786;2023-02-16T11:58:20;102759.88;;;24.66;30.16
58658;BME280;44428;45.630;13.786;2023-02-16T12:01:16;102748.84;;;24.50;30.40
58658;BME280;44428;45.630;13.786;2023-02-16T12:04:17;102743.38;;;24.22;30.82
58658;BME280;44428;45.630;13.786;2023-02-16T12:20:40;102734.88;;;23.70;33.62
58658;BME280;44428;45.630;13.786;2023-02-16T12:31:33;102725.22;;;23.00;35.75
58658;BME280;44428;45.630;13.786;2023-02-16T12:37:12;102725.72;;;22.74;36.50
58658;BME280;44428;45.630;13.786;2023-02-16T12:39:57;102720.69;;;21.68;38.26
58658;BME280;44428;45.630;13.786;2023-02-16T12:45:43;102716.47;;;21.75;38.38
58658;BME280;44428;45.630;13.786;2023-02-16T12:50:54;102719.38;;;21.41;39.48
58658;BME280;44428;45.630;13.786;2023-02-16T12:53:37;102705.44;;;21.78;38.89
58658;BME280;44428;45.630;13.786;2023-02-16T12:56:11;102707.28;;;21.57;39.40
58658;BME280;44428;45.630;13.786;2023-02-16T12:58:46;102696.78;;;21.54;39.56
58658;BME280;44428;45.630;13.786;2023-02-16T13:01:18;102698.44;;;21.13;40.55
58658;BME280;44428;45.630;13.786;2023-02-16T13:03:56;102702.47;;;20.75;41.32
58658;BME280;44428;45.630;13.786;2023-02-16T13:06:31;102703.38;;;20.96;41.09
58658;BME280;44428;45.630;13.786;2023-02-16T13:09:09;102698.72;;;21.10;40.79
58658;BME280;44428;45.630;13.786;2023-02-16T13:11:57;102705.09;;;20.97;41.08
58658;BME280;44428;45.630;13.786;2023-02-16T13:14:30;102704.84;;;21.00;40.88
58658;BME280;44428;45.630;13.786;2023-02-16T13:17:16;102692.97;;;20.59;41.98
58658;BME280;44428;45.630;13.786;2023-02-16T13:19:45;102678.09;;;20.33;42.40
58658;BME280;44428;45.630;13.786;2023-02-16T13:23:14;102684.94;;;20.14;43.10
58658;BME280;44428;45.630;13.786;2023-02-16T13:25:50;102687.38;;;19.84;43.75
58658;BME280;44428;45.630;13.786;2023-02-16T13:31:05;102686.03;;;18.84;46.19
58658;BME280;44428;45.630;13.786;2023-02-16T13:33:50;102678.56;;;18.26;47.86
58658;BME280;44428;45.630;13.786;2023-02-16T13:36:48;102680.41;;;17.88;49.22
58658;BME280;44428;45.630;13.786;2023-02-16T13:39:41;102679.09;;;17.55;50.55
58658;BME280;44428;45.630;13.786;2023-02-16T13:42:34;102674.00;;;17.65;50.54
58658;BME280;44428;45.630;13.786;2023-02-16T13:45:26;102677.44;;;17.79;50.62
58658;BME280;44428;45.630;13.786;2023-02-16T13:47:57;102682.34;;;17.98;50.00
58658;BME280;44428;45.630;13.786;2023-02-16T13:50:32;102679.78;;;17.97;50.17
58658;BME280;44428;45.630;13.786;2023-02-16T13:53:19;102668.22;;;18.09;49.85
58658;BME280;44428;45.630;13.786;2023-02-16T13:56:18;102680.03;;;18.30;49.28
58658;BME280;44428;45.630;13.786;2023-02-16T13:58:52;102679.75;;;18.22;49.40
58658;BME280;44428;45.630;13.786;2023-02-16T14:04:01;102675.03;;;17.62;51.00
58658;BME280;44428;45.630;13.786;2023-02-16T14:06:36;102681.44;;;17.47;51.66
58658;BME280;44428;45.630;13.786;2023-02-16T14:22:48;102679.69;;;17.20;53.14
58658;BME280;44428;45.630;13.786;2023-02-16T14:36:03;102664.56;;;16.79;54.65
58658;BME280;44428;45.630;13.786;2023-02-16T14:38:41;102667.31;;;16.36;55.79
58658;BME280;44428;45.630;13.786;2023-02-16T14:41:30;102661.81;;;16.11;56.91
58658;BME280;44428;45.630;13.786;2023-02-16T14:46:40;102675.47;;;15.62;58.82
58658;BME280;44428;45.630;13.786;2023-02-16T14:57:17;102658.31;;;14.91;62.35
58658;BME280;44428;45.630;13.786;2023-02-16T15:00:11;102671.03;;;14.70;63.18
58658;BME280;44428;45.630;13.786;2023-02-16T15:02:41;102660.22;;;14.57;63.72
58658;BME280;44428;45.630;13.786;2023-02-16T15:05:21;102667.41;;;14.39;64.80
58658;BME280;44428;45.630;13.786;2023-02-16T15:07:57;102662.22;;;14.20;65.69
58658;BME280;44428;45.630;13.786;2023-02-16T15:10:28;102661.19;;;14.07;66.49
58658;BME280;44428;45.630;13.786;2023-02-16T15:12:55;102665.44;;;13.94;67.25
58658;BME280;44428;45.630;13.786;2023-02-16T15:15:51;102667.94;;;13.80;67.87
58658;BME280;44428;45.630;13.786;2023-02-16T15:18:27;102663.75;;;13.58;68.92